Time;durP1;ratioP1;P1;durP2;ratioP2;P2;SDS_P1;SDS_P2;PMS_P1;PMS_P2;Temp;Humidity;BMP_temperature;BMP_pressure;BME280_temperature;BME280_humidity;BME280_pressure;Samples;Min_cycle;Max_cycle;Signal;HPM_P1;HPM_P2
2023/08/11 00:00:08;;;;;;;10.60;4.75;;;17.30;96.20;;;;;;4963502;28;94233;-75
2023/08/11 00:02:36;;;;;;;5.28;4.15;;;17.20;96.30;;;;;;4964774;28;92968;-76
2023/08/11 00:05:02;;;;;;;5.30;3.38;;;17.20;96.30;;;;;;4963308;28;92638;-76
2023/08/11 00:07:28;;;;;;;6.90;4.40;;;17.10;96.20;;;;;;4964787;28;94241;-75
2023/08/11 00:09:53;;;;;;;7.55;4.85;;;17.10;96.00;;;;;;4964542;28;93585;-75
2023/08/11 00:12:19;;;;;;;7.13;4.32;;;17.10;96.20;;;;;;4946996;28;92838;-75
2023/08/11 00:14:45;;;;;;;7.38;4.18;;;17.10;96.10;;;;;;4966025;28;92010;-76
2023/08/11 00:17:11;;;;;;;8.93;4.50;;;17.10;96.60;;;;;;4962953;28;93233;-75
2023/08/11 00:19:36;;;;;;;7.18;4.10;;;17.00;96.70;;;;;;4964741;28;93332;-76
2023/08/11 00:22:02;;;;;;;6.85;4.85;;;17.00;96.50;;;;;;4961969;28;93717;-76
2023/08/11 00:24:28;;;;;;;4.88;3.30;;;16.90;96.60;;;;;;4963247;28;93122;-75
2023/08/11 00:26:53;;;;;;;9.75;4.55;;;16.90;96.60;;;;;;4965703;28;94157;-76
2023/08/11 00:29:19;;;;;;;5.40;4.05;;;16.90;96.60;;;;;;4964406;28;93969;-76
2023/08/11 00:31:45;;;;;;;12.27;5.13;;;16.90;96.80;;;;;;4966213;28;92793;-76
2023/08/11 00:34:11;;;;;;;8.80;4.35;;;16.90;97.20;;;;;;4963695;28;92807;-76
2023/08/11 00:36:36;;;;;;;5.47;3.88;;;16.80;97.00;;;;;;4962371;28;93585;-76
2023/08/11 00:39:02;;;;;;;6.13;3.80;;;16.80;96.80;;;;;;4962646;28;96313;-75
2023/08/11 00:41:28;;;;;;;6.93;4.60;;;16.80;96.80;;;;;;4963302;28;93284;-76
2023/08/11 00:43:53;;;;;;;9.68;4.25;;;16.70;96.80;;;;;;4964474;28;92741;-76
2023/08/11 00:46:22;;;;;;;6.55;4.43;;;16.70;97.00;;;;;;4945329;28;97406;-76
2023/08/11 00:48:51;;;;;;;7.53;4.25;;;16.70;96.90;;;;;;4963111;28;93976;-75
2023/08/11 00:51:18;;;;;;;10.88;4.63;;;16.70;97.00;;;;;;4945604;28;92198;-75
2023/08/11 00:53:51;;;;;;;5.97;4.15;;;16.60;97.10;;;;;;4964484;28;92753;-75
2023/08/11 00:56:22;;;;;;;8.35;4.20;;;16.60;97.30;;;;;;4962473;28;94211;-75
2023/08/11 00:58:49;;;;;;;5.53;4.30;;;16.60;97.10;;;;;;4964143;28;93675;-76
2023/08/11 01:01:15;;;;;;;7.15;4.43;;;16.60;97.10;;;;;;4963668;28;92872;-75
2023/08/11 01:03:43;;;;;;;7.50;4.95;;;16.60;97.20;;;;;;4964285;28;92162;-76
2023/08/11 01:06:18;;;;;;;10.90;5.38;;;16.50;97.20;;;;;;4963264;28;93847;-76
2023/08/11 01:09:09;;;;;;;6.65;4.93;;;16.50;97.40;;;;;;4964376;28;92983;-75
2023/08/11 01:12:05;;;;;;;10.73;5.13;;;16.40;97.40;;;;;;4948598;28;94103;-75
2023/08/11 01:15:02;;;;;;;7.50;4.97;;;16.40;97.50;;;;;;4936314;28;92685;-75
2023/08/11 01:17:30;;;;;;;12.30;4.93;;;16.40;97.40;;;;;;4958503;28;97208;-75
2023/08/11 01:19:57;;;;;;;7.30;4.50;;;16.40;97.40;;;;;;4961883;28;92833;-75
2023/08/11 01:22:28;;;;;;;8.55;5.00;;;16.30;97.40;;;;;;4963260;28;92497;-75
2023/08/11 01:24:55;;;;;;;8.77;5.15;;;16.30;97.30;;;;;;4963504;28;92966;-76
2023/08/11 01:27:21;;;;;;;8.27;4.40;;;16.30;97.50;;;;;;4961424;28;95630;-76
2023/08/11 01:29:47;;;;;;;7.20;4.15;;;16.30;97.30;;;;;;4964643;28;92234;-75
2023/08/11 01:32:13;;;;;;;9.38;4.15;;;16.30;97.30;;;;;;4961903;28;92859;-76
2023/08/11 01:34:39;;;;;;;7.43;5.00;;;16.20;97.30;;;;;;4962076;28;92830;-75
2023/08/11 01:37:04;;;;;;;9.75;4.60;;;16.20;97.40;;;;;;4961965;28;94750;-75
2023/08/11 01:39:31;;;;;;;9.57;4.93;;;16.20;97.50;;;;;;4963904;28;94590;-75
2023/08/11 01:41:57;;;;;;;9.32;4.53;;;16.20;97.60;;;;;;4964215;28;93123;-76
2023/08/11 01:44:25;;;;;;;9.85;4.40;;;16.10;97.60;;;;;;4969560;28;92727;-75
2023/08/11 01:46:55;;;;;;;7.03;5.07;;;16.10;97.60;;;;;;4968897;28;93378;-76
2023/08/11 01:49:26;;;;;;;7.70;4.60;;;16.00;97.90;;;;;;4967776;28;93263;-75
2023/08/11 01:51:53;;;;;;;8.65;4.63;;;16.00;97.80;;;;;;4970738;28;92929;-75
2023/08/11 01:54:19;;;;;;;6.57;4.45;;;16.00;98.10;;;;;;4969537;28;91673;-76
2023/08/11 01:56:46;;;;;;;6.50;4.35;;;15.90;97.90;;;;;;4969995;28;93495;-75
2023/08/11 01:59:14;;;;;;;9.25;4.35;;;15.90;98.10;;;;;;4968569;28;93624;-76
2023/08/11 02:01:40;;;;;;;10.40;5.28;;;15.80;98.20;;;;;;4949699;28;93500;-76
2023/08/11 02:04:06;;;;;;;8.05;5.68;;;15.80;98.20;;;;;;4969920;28;92889;-75
2023/08/11 02:06:31;;;;;;;6.65;4.93;;;15.80;98.40;;;;;;4950287;28;95565;-75
2023/08/11 02:08:57;;;;;;;7.53;4.93;;;15.70;98.50;;;;;;4970379;28;93151;-75
2023/08/11 02:11:23;;;;;;;8.75;5.53;;;15.70;98.40;;;;;;4969719;28;92974;-76
2023/08/11 02:13:49;;;;;;;9.75;4.57;;;15.70;98.30;;;;;;4968222;28;94038;-75
2023/08/11 02:16:14;;;;;;;8.90;4.47;;;15.70;98.30;;;;;;4969023;28;93649;-75
2023/08/11 02:18:40;;;;;;;10.90;5.57;;;15.60;98.30;;;;;;4970202;28;93389;-75
2023/08/11 02:21:07;;;;;;;9.02;5.80;;;15.70;98.50;;;;;;4969087;28;92845;-75
2023/08/11 02:23:33;;;;;;;8.05;5.07;;;15.60;98.60;;;;;;4970072;28;93004;-75
2023/08/11 02:25:59;;;;;;;10.27;5.35;;;15.60;98.50;;;;;;4970062;28;94737;-75
2023/08/11 02:28:25;;;;;;;9.70;5.30;;;15.60;99.20;;;;;;4949810;28;97291;-75
2023/08/11 02:30:50;;;;;;;8.55;5.20;;;15.50;99.40;;;;;;4970148;28;93051;-76
2023/08/11 02:33:18;;;;;;;9.55;4.93;;;15.50;99.20;;;;;;4970144;28;92730;-76
2023/08/11 02:35:45;;;;;;;12.73;5.53;;;15.50;99.10;;;;;;4969752;28;93314;-76
2023/08/11 02:38:13;;;;;;;9.48;5.28;;;15.40;98.90;;;;;;4968589;28;94131;-75
2023/08/11 02:40:39;;;;;;;9.18;5.38;;;15.40;99.10;;;;;;4971287;28;92334;-76
2023/08/11 02:43:04;;;;;;;8.93;5.13;;;15.40;98.80;;;;;;4952388;28;92243;-76
2023/08/11 02:45:30;;;;;;;10.95;5.00;;;15.40;98.70;;;;;;4949847;28;96924;-75
2023/08/11 02:47:56;;;;;;;9.70;5.82;;;15.40;98.70;;;;;;4970530;28;93191;-75
2023/08/11 02:50:22;;;;;;;7.40;4.55;;;15.40;99.10;;;;;;4969618;28;93495;-75
2023/08/11 02:52:48;;;;;;;9.50;5.57;;;15.40;98.80;;;;;;4968322;28;93072;-76
2023/08/11 02:55:14;;;;;;;10.60;5.40;;;15.30;98.70;;;;;;4963577;28;93082;-75
2023/08/11 02:57:40;;;;;;;7.72;4.75;;;15.30;98.70;;;;;;4965757;28;92624;-75
2023/08/11 03:00:12;;;;;;;8.68;5.00;;;15.30;98.70;;;;;;4964871;28;92651;-75
2023/08/11 03:02:38;;;;;;;9.45;5.10;;;15.30;98.70;;;;;;4966512;28;92568;-75
2023/08/11 03:05:06;;;;;;;9.98;5.60;;;15.30;98.70;;;;;;4964168;28;93106;-75
2023/08/11 03:07:34;;;;;;;9.70;4.90;;;15.30;98.80;;;;;;4963660;28;93585;-75
2023/08/11 03:10:00;;;;;;;7.53;5.30;;;15.20;98.70;;;;;;4966464;28;92325;-75
2023/08/11 03:12:28;;;;;;;11.68;5.65;;;15.20;98.70;;;;;;4945990;28;92695;-75
2023/08/11 03:14:54;;;;;;;9.73;5.45;;;15.20;98.60;;;;;;4965249;28;95592;-75
2023/08/11 03:17:20;;;;;;;8.57;4.65;;;15.10;98.80;;;;;;4965966;28;94319;-75
2023/08/11 03:19:46;;;;;;;10.38;4.95;;;15.10;98.80;;;;;;4963097;28;92774;-75
2023/08/11 03:22:12;;;;;;;11.75;5.45;;;15.10;98.90;;;;;;4947166;28;92334;-75
2023/08/11 03:24:39;;;;;;;11.00;4.60;;;15.10;98.80;;;;;;4965331;28;94137;-75
2023/08/11 03:27:06;;;;;;;8.23;5.30;;;15.00;98.90;;;;;;4964976;28;93483;-75
2023/08/11 03:29:32;;;;;;;11.82;5.32;;;15.00;99.00;;;;;;4967818;28;92548;-75
2023/08/11 03:31:58;;;;;;;9.52;5.60;;;15.00;99.00;;;;;;4947858;28;92164;-75
2023/08/11 03:34:23;;;;;;;12.40;5.35;;;15.00;98.80;;;;;;4965215;28;93822;-76
2023/08/11 03:36:49;;;;;;;10.63;5.43;;;15.00;98.90;;;;;;4963302;28;93300;-76
2023/08/11 03:39:15;;;;;;;9.18;5.38;;;15.00;98.80;;;;;;4965405;28;93854;-75
2023/08/11 03:41:40;;;;;;;9.60;6.15;;;15.00;98.90;;;;;;4964553;28;92579;-75
2023/08/11 03:44:06;;;;;;;10.20;5.93;;;14.90;98.90;;;;;;4963310;28;93825;-75
2023/08/11 03:46:32;;;;;;;10.52;5.97;;;14.90;99.00;;;;;;4963138;28;92969;-75
2023/08/11 03:48:57;;;;;;;13.38;6.40;;;14.90;98.90;;;;;;4964198;28;101355;-75
2023/08/11 03:51:23;;;;;;;11.88;5.75;;;14.90;99.10;;;;;;4963440;28;92816;-76
2023/08/11 03:53:49;;;;;;;11.13;5.68;;;14.80;99.20;;;;;;4965999;28;93696;-75
2023/08/11 03:56:14;;;;;;;12.95;6.20;;;14.80;99.30;;;;;;4963678;28;93357;-75
2023/08/11 03:58:40;;;;;;;11.45;5.97;;;14.80;99.40;;;;;;4964870;28;92474;-76
2023/08/11 04:01:06;;;;;;;7.57;4.88;;;14.80;99.40;;;;;;4965093;28;93077;-75
2023/08/11 04:03:32;;;;;;;11.70;5.55;;;14.80;99.20;;;;;;4962340;28;94844;-75
2023/08/11 04:05:58;;;;;;;8.95;5.38;;;14.80;99.20;;;;;;4964813;28;92950;-76
2023/08/11 04:08:25;;;;;;;9.65;6.10;;;14.80;99.20;;;;;;4967498;28;92584;-75
2023/08/11 04:10:52;;;;;;;12.57;5.30;;;14.70;99.10;;;;;;4949520;28;92778;-75
2023/08/11 04:13:17;;;;;;;10.30;5.60;;;14.70;99.20;;;;;;4965366;28;93691;-76
2023/08/11 04:15:45;;;;;;;11.63;6.35;;;14.70;99.10;;;;;;4964269;28;93688;-75
2023/08/11 04:18:12;;;;;;;13.13;6.07;;;14.70;99.30;;;;;;4966026;28;92658;-75
2023/08/11 04:20:38;;;;;;;11.85;5.93;;;14.70;99.20;;;;;;4966893;28;92581;-75
2023/08/11 04:23:04;;;;;;;12.27;5.53;;;14.70;99.20;;;;;;4946955;28;93679;-75
2023/08/11 04:25:29;;;;;;;7.65;5.10;;;14.70;99.30;;;;;;4965788;28;93193;-75
2023/08/11 04:27:55;;;;;;;8.77;5.50;;;14.70;99.20;;;;;;4949370;28;94020;-75
2023/08/11 04:30:21;;;;;;;9.15;5.20;;;14.70;99.20;;;;;;4965551;28;92530;-75
2023/08/11 04:32:47;;;;;;;11.38;5.70;;;14.60;99.30;;;;;;4968443;28;93587;-75
2023/08/11 04:35:14;;;;;;;14.40;5.00;;;14.60;99.30;;;;;;4964872;28;94519;-75
2023/08/11 04:37:41;;;;;;;9.90;5.18;;;14.60;99.30;;;;;;4947974;28;92733;-75
2023/08/11 04:40:11;;;;;;;10.90;5.05;;;14.60;99.30;;;;;;4966383;28;92893;-75
2023/08/11 04:42:40;;;;;;;10.73;4.80;;;14.60;99.40;;;;;;4965907;28;93654;-75
2023/08/11 04:45:08;;;;;;;13.30;5.50;;;14.60;99.50;;;;;;4967950;28;92929;-75
2023/08/11 04:47:35;;;;;;;12.48;5.50;;;14.50;99.50;;;;;;4951157;28;92787;-75
2023/08/11 04:50:00;;;;;;;8.52;5.20;;;14.60;99.60;;;;;;4949134;28;93098;-75
2023/08/11 04:52:27;;;;;;;10.32;5.07;;;14.60;99.60;;;;;;4963552;28;94528;-75
2023/08/11 04:54:53;;;;;;;6.88;4.53;;;14.50;99.80;;;;;;4948595;28;94194;-76
2023/08/11 04:57:18;;;;;;;10.65;4.60;;;14.60;99.70;;;;;;4967594;28;92666;-78
2023/08/11 04:59:45;;;;;;;10.43;5.00;;;14.60;99.80;;;;;;4948456;28;92899;-75
2023/08/11 05:02:12;;;;;;;9.65;4.60;;;14.60;99.80;;;;;;4948399;28;96635;-75
2023/08/11 05:04:38;;;;;;;15.27;5.03;;;14.60;99.90;;;;;;4970468;28;95285;-75
2023/08/11 05:07:06;;;;;;;9.25;5.15;;;14.60;99.90;;;;;;4956420;28;92609;-75
2023/08/11 05:09:32;;;;;;;7.15;5.03;;;14.60;99.90;;;;;;4966778;28;92621;-75
2023/08/11 05:11:58;;;;;;;9.70;4.55;;;14.70;99.90;;;;;;4966662;28;93666;-75
2023/08/11 05:14:24;;;;;;;12.45;4.82;;;14.70;99.90;;;;;;4965475;28;93524;-75
2023/08/11 05:16:49;;;;;;;11.05;4.75;;;14.70;99.90;;;;;;4961129;28;94135;-75
2023/08/11 05:19:16;;;;;;;15.43;5.13;;;14.80;99.90;;;;;;4965051;28;92839;-75
2023/08/11 05:21:42;;;;;;;7.50;4.03;;;14.90;99.90;;;;;;4963929;28;92914;-75
2023/08/11 05:24:10;;;;;;;9.35;4.88;;;14.90;99.90;;;;;;4964039;28;93489;-75
2023/08/11 05:26:36;;;;;;;12.80;4.65;;;15.00;99.90;;;;;;4966447;28;92462;-75
2023/08/11 05:29:02;;;;;;;6.68;4.45;;;15.00;99.90;;;;;;4965063;28;92533;-76
2023/08/11 05:31:37;;;;;;;7.38;4.32;;;15.10;99.90;;;;;;4954212;28;95536;-76
2023/08/11 05:34:03;;;;;;;15.02;4.30;;;15.20;99.90;;;;;;4948050;28;95980;-75
2023/08/11 05:36:29;;;;;;;8.82;4.57;;;15.30;99.90;;;;;;4945947;28;92939;-75
2023/08/11 05:38:55;;;;;;;9.48;4.35;;;15.40;99.90;;;;;;4963419;28;92802;-75
2023/08/11 05:41:20;;;;;;;11.20;4.78;;;15.50;99.90;;;;;;4943969;28;97651;-75
2023/08/11 05:43:46;;;;;;;9.13;4.22;;;15.50;99.90;;;;;;4963539;28;93984;-76
2023/08/11 05:46:12;;;;;;;17.15;4.53;;;15.60;99.90;;;;;;4962535;28;92449;-75
2023/08/11 05:48:37;;;;;;;8.18;4.57;;;15.70;99.90;;;;;;4962183;28;92562;-76
2023/08/11 05:51:04;;;;;;;8.20;4.10;;;15.80;99.90;;;;;;4945615;28;96952;-75
2023/08/11 05:53:30;;;;;;;10.68;4.65;;;15.90;99.90;;;;;;4965603;28;93020;-76
2023/08/11 05:55:56;;;;;;;11.55;5.22;;;16.00;99.90;;;;;;4963259;28;92589;-76
2023/08/11 05:58:22;;;;;;;10.45;4.30;;;16.10;99.90;;;;;;4954700;28;92104;-75
2023/08/11 06:00:48;;;;;;;11.75;4.72;;;16.20;99.90;;;;;;4963349;28;94373;-76
2023/08/11 06:03:14;;;;;;;8.52;4.22;;;16.40;99.90;;;;;;4963265;28;93489;-77
2023/08/11 06:05:40;;;;;;;8.35;4.28;;;16.50;99.90;;;;;;4962665;28;94056;-77
2023/08/11 06:08:06;;;;;;;10.00;4.00;;;16.60;99.90;;;;;;4946208;28;92925;-77
2023/08/11 06:10:32;;;;;;;9.52;4.38;;;16.70;99.90;;;;;;4948120;28;94980;-76
2023/08/11 06:12:58;;;;;;;12.85;3.42;;;16.80;99.90;;;;;;4965269;28;94070;-76
2023/08/11 06:15:23;;;;;;;12.35;4.07;;;17.00;99.10;;;;;;4962753;28;92744;-76
2023/08/11 06:17:50;;;;;;;9.02;3.65;;;17.10;98.80;;;;;;4962222;28;92806;-77
2023/08/11 06:20:17;;;;;;;11.48;4.47;;;17.20;98.80;;;;;;4952158;28;96879;-77
2023/08/11 06:22:44;;;;;;;8.57;3.78;;;17.40;98.80;;;;;;4962490;28;93502;-77
2023/08/11 06:25:10;;;;;;;9.18;3.60;;;17.50;98.30;;;;;;4963427;28;92180;-77
2023/08/11 06:27:36;;;;;;;9.38;3.35;;;17.70;98.00;;;;;;4968736;28;92150;-77
2023/08/11 06:30:06;;;;;;;7.45;2.90;;;17.80;97.60;;;;;;4950291;28;95160;-81
2023/08/11 06:32:32;;;;;;;9.45;3.30;;;17.90;96.80;;;;;;4967773;28;103124;-83
2023/08/11 06:34:57;;;;;;;10.27;3.25;;;18.10;96.80;;;;;;4964688;28;92877;-89
2023/08/11 06:37:23;;;;;;;6.88;3.22;;;18.20;96.80;;;;;;4950187;28;92776;-88
2023/08/11 06:39:51;;;;;;;12.25;3.45;;;18.40;96.60;;;;;;4950993;28;95784;-88
2023/08/11 06:42:17;;;;;;;6.65;3.08;;;18.50;96.30;;;;;;4970577;28;96742;-87
2023/08/11 06:44:44;;;;;;;6.05;2.90;;;18.60;96.10;;;;;;4950307;28;92545;-87
2023/08/11 06:47:10;;;;;;;4.55;2.83;;;18.80;96.10;;;;;;4967494;28;92193;-86
2023/08/11 06:49:36;;;;;;;3.67;2.50;;;18.90;95.30;;;;;;4967141;28;96872;-86
2023/08/11 06:52:01;;;;;;;5.15;2.80;;;19.10;95.70;;;;;;4967204;28;95480;-87
2023/08/11 06:54:27;;;;;;;6.15;2.97;;;19.20;95.30;;;;;;4959130;28;93496;-87
2023/08/11 06:56:53;;;;;;;5.53;3.00;;;19.30;95.00;;;;;;4955548;28;92544;-86
2023/08/11 06:59:19;;;;;;;5.22;2.33;;;19.50;94.80;;;;;;4954741;28;95301;-88
2023/08/11 07:01:44;;;;;;;4.25;2.60;;;19.60;94.60;;;;;;4951566;28;96078;-85
2023/08/11 07:04:10;;;;;;;7.65;2.55;;;19.80;94.00;;;;;;4951614;28;92611;-85
2023/08/11 07:06:36;;;;;;;6.88;2.50;;;19.90;93.60;;;;;;4967717;28;92129;-85
2023/08/11 07:09:02;;;;;;;4.68;2.38;;;20.00;93.20;;;;;;4950187;28;95851;-87
2023/08/11 07:11:27;;;;;;;7.65;3.15;;;20.10;93.00;;;;;;4966387;28;95385;-85
2023/08/11 07:13:53;;;;;;;8.52;2.85;;;20.30;92.60;;;;;;4950538;28;92406;-83
2023/08/11 07:16:19;;;;;;;6.13;2.35;;;20.40;92.30;;;;;;4969086;28;92724;-88
2023/08/11 07:18:44;;;;;;;6.30;2.38;;;20.50;92.20;;;;;;4948596;28;96624;-83
2023/08/11 07:21:10;;;;;;;5.32;2.30;;;20.60;91.90;;;;;;4967862;28;96233;-88
2023/08/11 07:23:36;;;;;;;7.65;2.50;;;20.80;91.80;;;;;;4959580;28;92642;-84
2023/08/11 07:26:01;;;;;;;6.30;2.20;;;20.90;91.40;;;;;;4951544;28;92675;-85
2023/08/11 07:28:27;;;;;;;3.33;2.30;;;21.00;91.10;;;;;;4966235;28;96359;-79
2023/08/11 07:30:53;;;;;;;4.32;2.10;;;21.10;91.50;;;;;;4949612;28;95969;-80
2023/08/11 07:33:19;;;;;;;5.72;2.55;;;21.30;91.60;;;;;;4966133;28;92634;-80
2023/08/11 07:35:44;;;;;;;4.72;2.50;;;21.40;90.40;;;;;;4949885;28;92134;-80
2023/08/11 07:38:10;;;;;;;2.97;2.08;;;21.50;90.00;;;;;;4966185;28;93200;-80
2023/08/11 07:40:36;;;;;;;3.28;2.22;;;21.70;90.20;;;;;;4963549;28;93041;-79
2023/08/11 07:43:01;;;;;;;4.75;1.90;;;21.90;90.10;;;;;;4964912;28;93777;-78
2023/08/11 07:45:27;;;;;;;3.45;2.28;;;22.00;90.40;;;;;;4961979;28;92559;-79
2023/08/11 07:47:53;;;;;;;5.70;2.45;;;22.20;90.30;;;;;;4948177;28;96312;-80
2023/08/11 07:50:19;;;;;;;6.57;2.25;;;22.30;89.70;;;;;;4947440;28;95877;-79
2023/08/11 07:52:45;;;;;;;5.28;2.28;;;22.40;88.00;;;;;;4964313;28;92175;-79
2023/08/11 07:55:11;;;;;;;5.25;2.40;;;22.60;87.50;;;;;;4946258;28;93566;-79
2023/08/11 07:57:37;;;;;;;5.93;2.05;;;22.70;85.10;;;;;;4964539;28;93771;-79
2023/08/11 08:00:05;;;;;;;3.13;1.98;;;22.80;85.30;;;;;;4965099;28;93499;-79
2023/08/11 08:02:30;;;;;;;2.97;1.83;;;22.90;85.40;;;;;;4947273;28;92646;-79
2023/08/11 08:04:56;;;;;;;5.80;1.90;;;23.00;84.20;;;;;;4964709;28;92833;-83
2023/08/11 08:07:21;;;;;;;3.58;2.47;;;23.10;86.70;;;;;;4946113;28;97253;-82
2023/08/11 08:09:47;;;;;;;4.40;1.95;;;23.30;85.40;;;;;;4945650;28;97056;-81
2023/08/11 08:12:15;;;;;;;2.90;1.70;;;23.40;81.90;;;;;;4955405;28;92783;-81
2023/08/11 08:14:42;;;;;;;4.15;2.20;;;23.50;81.50;;;;;;4948111;28;92732;-83
2023/08/11 08:17:08;;;;;;;5.15;2.10;;;23.70;82.90;;;;;;4956346;28;96494;-81
2023/08/11 08:19:33;;;;;;;5.03;2.03;;;23.90;81.90;;;;;;4962923;28;96242;-83
2023/08/11 08:21:59;;;;;;;5.30;1.85;;;24.10;78.50;;;;;;4944538;28;92844;-82
2023/08/11 08:24:25;;;;;;;6.53;2.70;;;24.20;78.90;;;;;;4962778;28;91741;-80
2023/08/11 08:26:51;;;;;;;4.22;2.13;;;24.30;78.90;;;;;;4947175;28;95646;-82
2023/08/11 08:29:17;;;;;;;3.55;1.70;;;24.50;77.80;;;;;;4963769;28;96003;-81
2023/08/11 08:31:42;;;;;;;6.63;2.00;;;24.60;78.50;;;;;;4945817;28;93521;-83
2023/08/11 08:34:08;;;;;;;3.53;1.92;;;24.70;76.80;;;;;;4947100;28;92652;-81
2023/08/11 08:36:34;;;;;;;4.05;2.67;;;24.80;75.70;;;;;;4963766;28;93361;-82
2023/08/11 08:38:59;;;;;;;3.22;1.70;;;25.00;75.50;;;;;;4965915;28;95456;-81
2023/08/11 08:41:30;;;;;;;5.10;1.58;;;25.10;74.00;;;;;;4948868;28;93189;-79
2023/08/11 08:43:59;;;;;;;2.88;1.85;;;25.20;75.40;;;;;;4964339;28;92129;-79
2023/08/11 08:46:30;;;;;;;3.45;2.05;;;25.30;73.90;;;;;;4964418;28;93642;-81
2023/08/11 08:49:07;;;;;;;6.57;1.58;;;25.50;73.70;;;;;;4961636;28;95277;-82
2023/08/11 08:51:34;;;;;;;4.32;1.60;;;25.70;74.90;;;;;;4963614;28;92697;-81
2023/08/11 08:54:00;;;;;;;4.07;1.85;;;25.90;73.60;;;;;;4965766;28;92561;-82
2023/08/11 08:56:27;;;;;;;4.55;1.80;;;26.00;72.20;;;;;;4945094;28;97621;-80
2023/08/11 08:58:52;;;;;;;5.65;2.25;;;26.20;73.70;;;;;;4965193;28;94197;-81
2023/08/11 09:01:18;;;;;;;4.80;2.42;;;26.30;71.90;;;;;;4955229;28;92153;-79
2023/08/11 09:03:45;;;;;;;6.10;2.10;;;26.40;71.70;;;;;;4948046;28;92894;-79
2023/08/11 09:06:12;;;;;;;3.80;1.58;;;26.50;71.90;;;;;;4962344;28;96591;-81
2023/08/11 09:08:39;;;;;;;4.32;1.70;;;26.70;70.10;;;;;;4964339;28;95373;-79
2023/08/11 09:11:07;;;;;;;2.78;1.83;;;26.80;70.70;;;;;;4964779;28;92745;-81
2023/08/11 09:13:33;;;;;;;8.60;2.92;;;26.80;69.30;;;;;;4964518;28;91955;-83
2023/08/11 09:15:58;;;;;;;6.50;1.70;;;27.00;70.80;;;;;;4948491;28;97292;-81
2023/08/11 09:18:24;;;;;;;2.97;1.77;;;27.10;66.70;;;;;;4966637;28;93370;-80
2023/08/11 09:20:50;;;;;;;6.15;1.90;;;27.30;67.60;;;;;;4964055;28;93967;-79
2023/08/11 09:23:17;;;;;;;3.22;2.00;;;27.40;65.90;;;;;;4962336;28;92685;-79
2023/08/11 09:25:43;;;;;;;5.13;1.95;;;27.50;66.20;;;;;;4963151;28;92689;-79
2023/08/11 09:28:08;;;;;;;4.25;1.70;;;27.60;65.40;;;;;;4963328;28;92886;-79
2023/08/11 09:30:34;;;;;;;4.70;1.83;;;27.60;67.20;;;;;;4963388;28;92789;-78
2023/08/11 09:33:05;;;;;;;4.18;1.85;;;27.80;66.20;;;;;;4969825;28;92451;-81
2023/08/11 09:35:31;;;;;;;3.25;2.03;;;28.00;70.10;;;;;;4964213;28;98646;-84
2023/08/11 09:37:57;;;;;;;2.45;1.70;;;28.20;67.30;;;;;;4963654;28;92054;-79
2023/08/11 09:40:22;;;;;;;3.42;1.67;;;28.30;63.00;;;;;;4965575;28;92647;-78
2023/08/11 09:42:49;;;;;;;6.70;1.90;;;28.40;63.10;;;;;;4963039;28;92802;-78
2023/08/11 09:45:14;;;;;;;3.05;2.08;;;28.40;63.40;;;;;;4951813;28;96730;-78
2023/08/11 09:47:40;;;;;;;8.05;2.03;;;28.50;61.70;;;;;;4963940;28;94540;-78
2023/08/11 09:50:08;;;;;;;3.42;1.65;;;28.60;59.60;;;;;;4962407;28;92843;-78
2023/08/11 09:52:35;;;;;;;4.97;1.80;;;28.80;61.90;;;;;;4961281;28;92580;-79
2023/08/11 09:55:06;;;;;;;7.20;2.20;;;28.90;62.90;;;;;;4944538;28;95125;-78
2023/08/11 09:57:34;;;;;;;5.55;1.55;;;29.00;63.20;;;;;;4963813;28;92916;-78
2023/08/11 10:00:00;;;;;;;3.13;1.80;;;29.10;62.90;;;;;;4971289;28;92845;-78
2023/08/11 10:02:30;;;;;;;3.38;1.88;;;29.20;60.00;;;;;;4962971;28;92010;-78
2023/08/11 10:05:03;;;;;;;4.00;1.63;;;29.30;59.60;;;;;;4946498;28;96834;-78
2023/08/11 10:07:34;;;;;;;2.40;1.40;;;29.40;60.30;;;;;;4948396;28;97496;-79
2023/08/11 10:10:01;;;;;;;5.20;1.90;;;29.60;58.80;;;;;;4955886;28;93990;-78
2023/08/11 10:12:28;;;;;;;4.93;1.98;;;29.60;58.80;;;;;;4966628;28;92514;-79
2023/08/11 10:14:55;;;;;;;2.13;1.58;;;29.70;57.40;;;;;;4964905;28;96907;-78
2023/08/11 10:17:21;;;;;;;3.67;1.40;;;29.80;57.90;;;;;;4966571;28;93412;-78
2023/08/11 10:19:47;;;;;;;6.00;1.60;;;29.90;57.40;;;;;;4964494;28;92895;-79
2023/08/11 10:22:13;;;;;;;3.63;1.50;;;30.10;57.90;;;;;;4962576;28;92823;-79
2023/08/11 10:24:41;;;;;;;3.13;1.38;;;30.10;57.40;;;;;;4970703;28;93330;-78
2023/08/11 10:27:07;;;;;;;4.07;1.85;;;30.20;57.30;;;;;;4972530;28;92982;-76
2023/08/11 10:29:35;;;;;;;5.40;1.75;;;30.10;57.50;;;;;;4952433;28;92359;-79
2023/08/11 10:32:00;;;;;;;3.10;1.65;;;30.10;57.00;;;;;;4964715;28;93035;-78
2023/08/11 10:34:26;;;;;;;4.63;1.83;;;30.10;55.80;;;;;;4947424;28;97622;-79
2023/08/11 10:36:57;;;;;;;5.75;1.70;;;30.20;56.70;;;;;;4946594;28;97547;-79
2023/08/11 10:39:24;;;;;;;3.53;2.00;;;30.30;55.90;;;;;;4966779;28;92598;-80
2023/08/11 10:41:50;;;;;;;3.70;2.60;;;30.40;55.30;;;;;;4964587;28;92800;-77
2023/08/11 10:44:18;;;;;;;3.67;1.65;;;30.40;54.30;;;;;;4972707;28;95072;-77
2023/08/11 10:46:46;;;;;;;7.35;1.80;;;30.50;54.90;;;;;;4965843;28;93038;-77
2023/08/11 10:49:14;;;;;;;3.08;1.58;;;30.70;56.30;;;;;;4965484;28;92504;-78
2023/08/11 10:51:41;;;;;;;3.75;2.08;;;30.70;53.50;;;;;;4948742;28;92648;-80
2023/08/11 10:54:06;;;;;;;4.43;1.52;;;30.80;55.20;;;;;;4964047;28;95307;-80
2023/08/11 10:56:38;;;;;;;5.38;2.40;;;30.90;55.40;;;;;;4967971;28;93259;-80
2023/08/11 10:59:16;;;;;;;6.43;1.90;;;31.00;54.50;;;;;;4948601;28;93525;-80
2023/08/11 11:01:45;;;;;;;2.65;1.83;;;31.00;54.00;;;;;;4964257;28;92170;-80
2023/08/11 11:04:12;;;;;;;2.80;1.80;;;31.00;53.10;;;;;;4965900;28;93430;-79
2023/08/11 11:06:39;;;;;;;5.85;2.10;;;31.10;53.80;;;;;;4947516;28;96754;-80
2023/08/11 11:09:07;;;;;;;3.72;1.75;;;31.10;55.90;;;;;;4949610;28;92848;-79
2023/08/11 11:11:36;;;;;;;8.65;2.00;;;31.20;54.70;;;;;;4966593;28;93130;-81
2023/08/11 11:14:11;;;;;;;4.80;1.75;;;31.40;55.00;;;;;;4965519;28;94212;-79
2023/08/11 11:16:38;;;;;;;3.22;2.22;;;31.40;52.80;;;;;;4944797;28;96711;-80
2023/08/11 11:19:05;;;;;;;2.72;1.60;;;31.40;52.50;;;;;;4948261;28;92419;-81
2023/08/11 11:21:31;;;;;;;8.60;2.03;;;31.50;54.90;;;;;;4963058;28;93053;-80
2023/08/11 11:23:57;;;;;;;4.10;2.05;;;31.50;53.70;;;;;;4966344;28;95237;-80
2023/08/11 11:26:32;;;;;;;4.38;1.52;;;31.60;52.50;;;;;;4950196;28;97227;-79
2023/08/11 11:29:00;;;;;;;4.03;1.58;;;31.70;53.20;;;;;;4972646;28;92396;-81
2023/08/11 11:31:38;;;;;;;3.10;1.60;;;31.80;51.50;;;;;;4964955;28;92549;-81
2023/08/11 11:34:04;;;;;;;3.72;1.77;;;31.90;51.70;;;;;;4949038;28;96516;-81
2023/08/11 11:36:31;;;;;;;2.03;1.52;;;32.00;52.70;;;;;;4964305;28;93348;-80
2023/08/11 11:38:57;;;;;;;4.80;1.90;;;32.00;52.40;;;;;;4948714;28;92770;-80
2023/08/11 11:41:23;;;;;;;1.77;1.50;;;31.90;50.10;;;;;;4948323;28;91756;-80
2023/08/11 11:43:50;;;;;;;5.25;1.70;;;32.00;51.40;;;;;;4963236;28;95732;-81
2023/08/11 11:46:18;;;;;;;4.10;1.90;;;32.00;51.90;;;;;;4965321;28;92490;-79
2023/08/11 11:48:50;;;;;;;5.05;1.73;;;32.10;50.70;;;;;;4946880;28;93924;-79
2023/08/11 11:51:18;;;;;;;2.20;1.57;;;32.10;51.80;;;;;;4946181;28;92849;-79
2023/08/11 11:53:44;;;;;;;1.92;1.20;;;32.20;52.80;;;;;;4971809;28;95812;-80
2023/08/11 11:56:15;;;;;;;2.78;1.35;;;32.50;52.40;;;;;;4948038;28;96777;-79
2023/08/11 11:58:46;;;;;;;4.45;1.40;;;32.90;52.50;;;;;;4947013;28;92945;-80
2023/08/11 12:01:16;;;;;;;3.85;1.38;;;33.00;50.70;;;;;;4969855;28;92873;-80
2023/08/11 12:03:44;;;;;;;3.55;1.40;;;33.10;50.50;;;;;;4964423;28;93273;-80
2023/08/11 12:06:09;;;;;;;2.05;1.50;;;33.10;51.50;;;;;;4962282;28;96416;-79
2023/08/11 12:08:35;;;;;;;5.15;1.35;;;33.10;51.70;;;;;;4965892;28;92670;-79
2023/08/11 12:11:03;;;;;;;3.13;1.67;;;33.00;50.60;;;;;;4946854;28;92913;-80
2023/08/11 12:13:30;;;;;;;2.75;1.17;;;32.90;49.30;;;;;;4964299;28;95386;-80
2023/08/11 12:15:57;;;;;;;5.72;1.23;;;32.80;52.20;;;;;;4947518;28;97274;-79
2023/08/11 12:18:22;;;;;;;3.25;1.27;;;32.90;52.50;;;;;;4947508;28;92494;-79
2023/08/11 12:20:49;;;;;;;4.63;1.42;;;32.90;50.70;;;;;;4949298;28;93290;-79
2023/08/11 12:23:14;;;;;;;2.70;1.17;;;32.80;51.10;;;;;;4947045;28;97006;-79
2023/08/11 12:25:40;;;;;;;6.47;1.60;;;32.90;51.20;;;;;;4947092;28;96879;-79
2023/08/11 12:28:06;;;;;;;4.03;1.38;;;32.90;50.90;;;;;;4944678;28;92438;-79
2023/08/11 12:30:31;;;;;;;4.43;1.50;;;32.90;50.60;;;;;;4946141;28;92014;-79
2023/08/11 12:32:57;;;;;;;3.40;1.20;;;33.00;49.20;;;;;;4962155;28;96941;-79
2023/08/11 12:35:24;;;;;;;2.63;1.42;;;32.90;48.80;;;;;;4945324;28;96202;-79
2023/08/11 12:37:49;;;;;;;2.50;1.23;;;33.00;49.60;;;;;;4969361;28;93667;-79
2023/08/11 12:40:18;;;;;;;3.47;1.45;;;33.00;51.10;;;;;;4947961;28;93008;-80
2023/08/11 12:42:44;;;;;;;2.08;1.10;;;33.10;49.50;;;;;;4963214;28;94315;-79